Kezdőlap
METAR-TAF:

METAR-TAF

Repülőterek :

Coral Harbour, Nunavut, Kanada

földrajzi szélesség: 64-12N, földrajzi hosszúság: 083-22W, magasság: 64 m

Jelenlegi meteorológiai megfigyelések

A jelentés 12 órával és 28 perccel ezelõtt készült, 00:00 UTC
Északi szél 7 kt
Hőmérséklet 0°C
Páratartalom 80%
Légköri nyomás 1016 hPa
Látótávolság: 24.1 km
Kevés felhő 4000 lábon
Szórványos felhőzet 21000 lábon

METAR: CYZS 060000Z 35007KT 15SM FEW040 SCT210 00/M03 A3001 RMK SC1CI3 SC TR SLP168

Idő: 08:28 (12:28 UTC)

Előrejelzés

A jelentés 11 órával és 50 perccel ezelõtt készült, 00:38 UTC
Az előrejelzés 06-én 01 óra UTC és 06-én 13 óra UTC között érvényes
Északi szél 8 kt
Látótávolság: 10 km
Kevés felhő 4000 lábon
Szórványos felhőzet 21000 lábon

TAF: CYZS 060038Z 0601/0613 35008KT P6SM FEW040 SCT210 RMK NXT FCST BY 060700Z

Meteorológiai megfigyelések és előrejelzések több, mint 4000 repülőtéren (METAR és TAF jelentéseket).

A térképen piros és sárga pontok jelzik az elérhető meteorológiai állomásokat.

Mozgassa az egeret a pont fölött, hogy megjelenjen az állomás neve.

Azután kattintson az időjárási megfigyelések és előrejelzések megtekintéséhez.

A térkép megváltoztatása: kattintson a fekete keresztel jelölt zöld gombra ráközelítéshez, a vonallal jelölt zöld gombra távolításhoz, vagy a zöld nyilakra a szomszédos térképek eléréséhez.


METAR-TAF: